createdAt,value
2018-03-16T00:00:39.204Z,31.3
2018-03-16T00:01:28.639Z,31
2018-03-16T00:02:19.096Z,30.8
2018-03-16T00:03:09.254Z,30.7
2018-03-16T00:03:59.048Z,30.4
2018-03-16T00:04:48.966Z,30
2018-03-16T00:05:40.504Z,30.6
2018-03-16T00:06:29.988Z,31.3
2018-03-16T00:07:19.461Z,31.8
2018-03-16T00:08:09.522Z,32.4
2018-03-16T00:08:59.846Z,33.1
2018-03-16T00:09:50.485Z,33.8
2018-03-16T00:10:40.217Z,34.3
2018-03-16T00:11:30.474Z,33.9
2018-03-16T00:12:20.384Z,33.6
2018-03-16T00:13:09.576Z,33.4
2018-03-16T00:13:59.296Z,33.3
2018-03-16T00:14:49.168Z,33.1
2018-03-16T00:15:40.276Z,33
2018-03-16T00:16:29.454Z,32.9
2018-03-16T00:17:19.963Z,32.8
2018-03-16T00:18:09.569Z,32.6
2018-03-16T00:19:00.015Z,32.5
2018-03-16T00:19:50.763Z,32.4
2018-03-16T00:20:41.036Z,32.2
2018-03-16T00:21:29.578Z,31.8
2018-03-16T00:22:20.959Z,31.4
2018-03-16T00:23:09.143Z,31.1
2018-03-16T00:24:00.279Z,30.9
2018-03-16T00:24:49.828Z,30.7
2018-03-16T00:25:40.873Z,30.6
2018-03-16T00:26:30.372Z,30
2018-03-16T00:27:21.030Z,30.4
2018-03-16T00:28:10.460Z,31
2018-03-16T00:29:01.415Z,31.6
2018-03-16T00:29:51.095Z,32.3
2018-03-16T00:30:41.531Z,32.9
2018-03-16T00:31:30.998Z,33.5
2018-03-16T00:32:21.205Z,34.2
2018-03-16T00:33:11.385Z,34
2018-03-16T00:34:01.836Z,33.6
2018-03-16T00:34:51.177Z,33.4
2018-03-16T00:35:41.587Z,33.3
2018-03-16T00:36:31.272Z,33.1
2018-03-16T00:37:21.795Z,33
2018-03-16T00:38:13.102Z,32.9
2018-03-16T00:39:01.954Z,32.8
2018-03-16T00:39:51.965Z,32.6
2018-03-16T00:40:42.074Z,32.5
2018-03-16T00:41:31.465Z,32.4
2018-03-16T00:42:22.007Z,32.2
2018-03-16T00:43:11.741Z,31.8
2018-03-16T00:44:01.906Z,31.4
2018-03-16T00:44:52.444Z,31.1
2018-03-16T00:45:41.709Z,30.9
2018-03-16T00:46:31.634Z,30.8
2018-03-16T00:47:22.900Z,30.6
2018-03-16T00:48:11.797Z,30.1
2018-03-16T00:49:01.784Z,30.3
2018-03-16T00:49:52.686Z,30.9
2018-03-16T00:50:42.547Z,31.5
2018-03-16T00:51:32.249Z,32.1
2018-03-16T00:52:23.129Z,32.7
2018-03-16T00:53:12.748Z,33.3
2018-03-16T00:54:03.220Z,33.9
2018-03-16T00:54:53.820Z,34.2
2018-03-16T00:55:43.044Z,33.8
2018-03-16T00:56:33.001Z,33.6
2018-03-16T00:57:23.355Z,33.4
2018-03-16T00:58:11.398Z,33.3
2018-03-16T00:59:03.341Z,33.1
2018-03-16T00:59:52.663Z,32.9
2018-03-16T01:00:43.018Z,32.9
2018-03-16T01:01:32.398Z,32.8
2018-03-16T01:02:22.937Z,32.6
2018-03-16T01:03:13.226Z,32.5
2018-03-16T01:04:02.966Z,32.3
2018-03-16T01:04:53.118Z,31.9
2018-03-16T01:05:43.275Z,31.6
2018-03-16T01:06:34.403Z,31.3
2018-03-16T01:07:23.116Z,31
2018-03-16T01:08:12.977Z,30.9
2018-03-16T01:09:04.248Z,30.8
2018-03-16T01:09:54.124Z,30.6
2018-03-16T01:10:43.335Z,30
2018-03-16T01:11:34.671Z,30.4
2018-03-16T01:12:23.988Z,31.1
2018-03-16T01:13:14.308Z,31.6
2018-03-16T01:14:03.664Z,32.3
2018-03-16T01:14:53.633Z,32.9
2018-03-16T01:15:44.750Z,33.6
2018-03-16T01:16:34.168Z,34.3
2018-03-16T01:17:24.934Z,33.9
2018-03-16T01:18:15.138Z,33.6
2018-03-16T01:19:04.362Z,33.4
2018-03-16T01:19:54.034Z,33.2
2018-03-16T01:20:44.540Z,33.1
2018-03-16T01:21:34.400Z,33
2018-03-16T01:22:24.877Z,32.9
2018-03-16T01:23:14.732Z,32.8
2018-03-16T01:24:05.077Z,32.6
2018-03-16T01:24:54.762Z,32.5
2018-03-16T01:25:44.262Z,32.4
2018-03-16T01:26:35.292Z,32.3
2018-03-16T01:27:24.641Z,31.9
2018-03-16T01:28:15.611Z,31.5
2018-03-16T01:29:05.141Z,31.2
2018-03-16T01:29:55.369Z,30.9
2018-03-16T01:30:45.272Z,30.8
2018-03-16T01:31:35.384Z,30.6
2018-03-16T01:32:25.279Z,30
2018-03-16T01:33:15.446Z,30.3
2018-03-16T01:34:04.552Z,30.8
2018-03-16T01:34:55.559Z,31.4
2018-03-16T01:35:45.449Z,32.1
2018-03-16T01:36:35.284Z,32.6
2018-03-16T01:37:26.704Z,33.3
2018-03-16T01:38:15.354Z,33.9
2018-03-16T01:39:06.265Z,34.2
2018-03-16T01:39:56.761Z,33.8
2018-03-16T01:40:46.350Z,33.5
2018-03-16T01:41:35.685Z,33.3
2018-03-16T01:42:26.981Z,33.1
2018-03-16T01:43:16.739Z,33.1
2018-03-16T01:44:05.766Z,32.9
2018-03-16T01:44:56.852Z,32.8
2018-03-16T01:45:45.601Z,32.7
2018-03-16T01:46:37.463Z,32.6
2018-03-16T01:47:26.943Z,32.5
2018-03-16T01:48:15.421Z,32.3
2018-03-16T01:49:07.740Z,32.1
2018-03-16T01:49:55.991Z,31.6
2018-03-16T01:50:46.901Z,31.3
2018-03-16T01:51:35.425Z,31
2018-03-16T01:52:27.142Z,30.8
2018-03-16T01:53:17.098Z,30.6
2018-03-16T01:54:07.220Z,30.4
2018-03-16T01:54:56.554Z,29.9
2018-03-16T01:55:48.147Z,30.5
2018-03-16T01:56:36.930Z,31.1
2018-03-16T01:57:26.868Z,31.7
2018-03-16T01:58:17.000Z,32.3
2018-03-16T01:59:08.105Z,32.9
2018-03-16T01:59:56.995Z,33.6
2018-03-16T02:00:47.826Z,34.3
2018-03-16T02:01:38.382Z,33.9
2018-03-16T02:02:28.010Z,33.6
2018-03-16T02:03:16.910Z,33.4
2018-03-16T02:04:08.027Z,33.3
2018-03-16T02:04:57.027Z,33.1
2018-03-16T02:05:47.875Z,33
2018-03-16T02:06:37.740Z,32.9
2018-03-16T02:07:28.688Z,32.8
2018-03-16T02:08:18.716Z,32.6
2018-03-16T02:09:08.310Z,32.5
2018-03-16T02:09:58.972Z,32.4
2018-03-16T02:10:48.242Z,32.2
2018-03-16T02:11:38.095Z,31.8
2018-03-16T02:12:28.751Z,31.4
2018-03-16T02:13:18.142Z,31.1
2018-03-16T02:14:08.314Z,30.9
2018-03-16T02:14:58.151Z,30.8
2018-03-16T02:15:48.576Z,30.6
2018-03-16T02:16:37.775Z,30.1
2018-03-16T02:17:29.324Z,30.1
2018-03-16T02:18:19.273Z,30.8
2018-03-16T02:19:08.752Z,31.4
2018-03-16T02:19:59.017Z,32
2018-03-16T02:20:49.696Z,32.6
2018-03-16T02:21:39.616Z,33.3
2018-03-16T02:22:28.756Z,33.9
2018-03-16T02:23:20.201Z,34.1
2018-03-16T02:24:09.891Z,33.6
2018-03-16T02:25:00.142Z,33.4
2018-03-16T02:25:49.924Z,33.3
2018-03-16T02:26:39.966Z,33.1
2018-03-16T02:27:29.079Z,33
2018-03-16T02:28:20.122Z,32.9
2018-03-16T02:29:09.387Z,32.8
2018-03-16T02:29:59.819Z,32.7
2018-03-16T02:30:49.400Z,32.5
2018-03-16T02:31:39.418Z,32.4
2018-03-16T02:32:30.194Z,32.3
2018-03-16T02:33:20.278Z,31.8
2018-03-16T02:34:09.054Z,31.4
2018-03-16T02:35:00.108Z,31.1
2018-03-16T02:35:49.966Z,30.9
2018-03-16T02:36:41.102Z,30.8
2018-03-16T02:37:30.096Z,30.6
2018-03-16T02:38:20.883Z,30.3
2018-03-16T02:39:10.101Z,30.1
2018-03-16T02:40:00.826Z,30.7
2018-03-16T02:40:51.596Z,31.3
2018-03-16T02:41:42.060Z,32
2018-03-16T02:42:30.728Z,32.6
2018-03-16T02:43:20.707Z,33.3
2018-03-16T02:44:09.931Z,33.9
2018-03-16T02:45:01.600Z,34.2
2018-03-16T02:45:51.586Z,33.8
2018-03-16T02:46:41.730Z,33.5
2018-03-16T02:47:31.454Z,33.3
2018-03-16T02:48:21.181Z,33.2
2018-03-16T02:49:11.306Z,33.1
2018-03-16T02:50:01.187Z,32.9
2018-03-16T02:50:52.702Z,32.8
2018-03-16T02:51:40.836Z,32.7
2018-03-16T02:52:32.295Z,32.6
2018-03-16T02:53:20.819Z,32.4
2018-03-16T02:54:11.682Z,32.3
2018-03-16T02:55:01.137Z,31.9
2018-03-16T02:55:51.412Z,31.4
2018-03-16T02:56:42.239Z,31.2
2018-03-16T02:57:31.516Z,30.9
2018-03-16T02:58:21.496Z,30.8
2018-03-16T02:59:11.556Z,30.6
2018-03-16T03:00:01.806Z,30.4
2018-03-16T03:00:52.233Z,30
2018-03-16T03:01:42.087Z,30.6
2018-03-16T03:02:32.370Z,31.2
2018-03-16T03:03:22.553Z,31.8
2018-03-16T03:04:13.869Z,32.4
2018-03-16T03:05:03.104Z,33.1
2018-03-16T03:05:51.341Z,33.8
2018-03-16T03:06:41.766Z,34.3
2018-03-16T03:07:32.909Z,33.8
2018-03-16T03:08:22.581Z,33.6
2018-03-16T03:09:12.536Z,33.3
2018-03-16T03:10:02.726Z,33.2
2018-03-16T03:10:52.541Z,33.1
2018-03-16T03:11:42.650Z,32.9
2018-03-16T03:12:33.310Z,32.8
2018-03-16T03:13:22.951Z,32.7
2018-03-16T03:14:13.928Z,32.6
2018-03-16T03:15:03.997Z,32.5
2018-03-16T03:15:54.326Z,32.4
2018-03-16T03:16:43.640Z,32
2018-03-16T03:17:34.443Z,31.6
2018-03-16T03:18:24.506Z,31.3
2018-03-16T03:19:14.305Z,31
2018-03-16T03:20:05.228Z,30.8
2018-03-16T03:20:54.683Z,30.7
2018-03-16T03:21:44.786Z,30.5
2018-03-16T03:22:33.953Z,29.9
2018-03-16T03:23:24.333Z,30.4
2018-03-16T03:24:14.341Z,31.1
2018-03-16T03:25:04.532Z,31.7
2018-03-16T03:25:55.393Z,32.3
2018-03-16T03:26:45.710Z,32.9
2018-03-16T03:27:35.521Z,33.6
2018-03-16T03:28:24.954Z,34.3
2018-03-16T03:29:15.593Z,34
2018-03-16T03:30:03.688Z,33.7
2018-03-16T03:30:53.851Z,33.5
2018-03-16T03:31:45.136Z,33.3
2018-03-16T03:32:34.151Z,33.2
2018-03-16T03:33:25.267Z,33.1
2018-03-16T03:34:16.019Z,32.9
2018-03-16T03:35:05.173Z,32.8
2018-03-16T03:35:55.189Z,32.7
2018-03-16T03:36:46.121Z,32.6
2018-03-16T03:37:35.915Z,32.4
2018-03-16T03:38:25.969Z,32.1
2018-03-16T03:39:15.737Z,31.7
2018-03-16T03:40:05.781Z,31.4
2018-03-16T03:40:55.824Z,31.1
2018-03-16T03:41:46.130Z,30.9
2018-03-16T03:42:35.629Z,30.8
2018-03-16T03:43:26.607Z,30.7
2018-03-16T03:44:16.907Z,30.3
2018-03-16T03:45:06.441Z,30.1
2018-03-16T03:45:57.032Z,30.8
2018-03-16T03:46:46.519Z,31.4
2018-03-16T03:47:36.564Z,32
2018-03-16T03:48:27.222Z,32.6
2018-03-16T03:49:16.486Z,33.3
2018-03-16T03:50:06.733Z,33.9
2018-03-16T03:50:56.864Z,34.2
2018-03-16T03:51:45.753Z,33.8
2018-03-16T03:52:36.379Z,33.6
2018-03-16T03:53:26.979Z,33.4
2018-03-16T03:54:17.699Z,33.3
2018-03-16T03:55:07.422Z,33.1
2018-03-16T03:55:57.720Z,33
2018-03-16T03:56:47.381Z,32.9
2018-03-16T03:57:37.335Z,32.8
2018-03-16T03:58:27.643Z,32.6
2018-03-16T03:59:17.733Z,32.5
2018-03-16T04:00:07.538Z,32.4
2018-03-16T04:00:56.735Z,32.2
2018-03-16T04:01:46.278Z,31.7
2018-03-16T04:02:36.558Z,31.4
2018-03-16T04:03:25.864Z,31.1
2018-03-16T04:04:16.650Z,30.9
2018-03-16T04:05:06.078Z,30.7
2018-03-16T04:05:57.975Z,30.6
2018-03-16T04:06:46.828Z,30
2018-03-16T04:07:36.905Z,30.3
2018-03-16T04:08:28.195Z,30.9
2018-03-16T04:09:17.310Z,31.6
2018-03-16T04:10:08.757Z,32.2
2018-03-16T04:10:57.943Z,32.9
2018-03-16T04:11:48.888Z,33.6
2018-03-16T04:12:38.423Z,34.3
2018-03-16T04:13:28.170Z,34
2018-03-16T04:14:18.653Z,33.6
2018-03-16T04:15:08.302Z,33.4
2018-03-16T04:15:58.677Z,33.3
2018-03-16T04:16:48.948Z,33.1
2018-03-16T04:17:38.507Z,33
2018-03-16T04:18:27.699Z,32.9
2018-03-16T04:19:19.200Z,32.8
2018-03-16T04:20:08.192Z,32.6
2018-03-16T04:20:57.579Z,32.4
2018-03-16T04:21:48.114Z,32.3
2018-03-16T04:22:38.657Z,32.1
2018-03-16T04:23:27.669Z,31.7
2018-03-16T04:24:18.512Z,31.3
2018-03-16T04:25:23.042Z,31.1
2018-03-16T04:25:57.488Z,30.8
2018-03-16T04:26:47.894Z,30.7
2018-03-16T04:27:38.850Z,30.5
2018-03-16T04:28:28.859Z,30.3
2018-03-16T04:29:18.515Z,29.9
2018-03-16T04:30:09.290Z,30.5
2018-03-16T04:30:59.339Z,31.1
2018-03-16T04:31:48.043Z,31.8
2018-03-16T04:32:39.008Z,32.4
2018-03-16T04:33:29.459Z,33.1
2018-03-16T04:34:15.911Z,33.8
2018-03-16T04:35:09.579Z,34.3
2018-03-16T04:35:59.254Z,33.8
2018-03-16T04:36:49.191Z,33.5
2018-03-16T04:37:38.968Z,33.4
2018-03-16T04:38:29.121Z,33.2
2018-03-16T04:39:18.194Z,33.1
2018-03-16T04:40:09.368Z,33
2018-03-16T04:40:58.405Z,32.9
2018-03-16T04:41:49.760Z,32.8
2018-03-16T04:42:39.262Z,32.6
2018-03-16T04:43:29.692Z,32.4
2018-03-16T04:44:19.269Z,32.3
2018-03-16T04:45:10.192Z,31.9
2018-03-16T04:46:00.247Z,31.5
2018-03-16T04:46:49.707Z,31.2
2018-03-16T04:47:39.617Z,30.9
2018-03-16T04:48:29.159Z,30.8
2018-03-16T04:49:19.514Z,30.7
2018-03-16T04:50:09.544Z,30.6
2018-03-16T04:51:00.910Z,30.4
2018-03-16T04:51:50.535Z,30.3
2018-03-16T04:52:40.248Z,30.2
2018-03-16T04:53:29.658Z,29.6
2018-03-16T04:54:19.559Z,29.9
2018-03-16T04:55:10.709Z,30.6
2018-03-16T04:56:00.338Z,31.3
2018-03-16T04:56:49.447Z,31.9
2018-03-16T04:57:41.078Z,32.6
2018-03-16T04:58:30.633Z,33.2
2018-03-16T04:59:19.523Z,33.9
2018-03-16T05:00:09.776Z,33.9
2018-03-16T05:01:01.133Z,33.6
2018-03-16T05:01:50.507Z,33.4
2018-03-16T05:02:40.711Z,33.3
2018-03-16T05:03:31.082Z,33.1
2018-03-16T05:04:21.096Z,33
2018-03-16T05:05:11.629Z,32.9
2018-03-16T05:06:01.211Z,32.8
2018-03-16T05:06:51.208Z,32.6
2018-03-16T05:07:41.680Z,32.5
2018-03-16T05:08:30.981Z,32.4
2018-03-16T05:09:21.248Z,32.2
2018-03-16T05:10:11.388Z,31.8
2018-03-16T05:11:01.621Z,31.4
2018-03-16T05:11:51.200Z,31.1
2018-03-16T05:12:41.182Z,30.9
2018-03-16T05:13:32.318Z,30.7
2018-03-16T05:14:22.133Z,30.6
2018-03-16T05:15:11.267Z,30.4
2018-03-16T05:16:01.590Z,30.4
2018-03-16T05:16:53.293Z,30.3
2018-03-16T05:17:42.490Z,29.9
2018-03-16T05:18:32.056Z,29.7
2018-03-16T05:19:22.156Z,30.3
2018-03-16T05:20:12.273Z,31
2018-03-16T05:21:02.542Z,31.7
2018-03-16T05:21:52.112Z,32.4
2018-03-16T05:22:42.744Z,33.1
2018-03-16T05:23:32.259Z,33.8
2018-03-16T05:24:22.957Z,34.2
2018-03-16T05:25:11.569Z,33.8
2018-03-16T05:26:02.926Z,33.6
2018-03-16T05:26:53.256Z,33.4
2018-03-16T05:27:43.868Z,33.2
2018-03-16T05:28:32.791Z,33.1
2018-03-16T05:29:23.203Z,33
2018-03-16T05:30:12.711Z,32.9
2018-03-16T05:31:03.233Z,32.8
2018-03-16T05:31:52.370Z,32.6
2018-03-16T05:32:43.286Z,32.5
2018-03-16T05:33:32.951Z,32.4
2018-03-16T05:34:23.431Z,32.3
2018-03-16T05:35:12.991Z,31.9
2018-03-16T05:36:01.478Z,31.4
2018-03-16T05:36:53.262Z,31.2
2018-03-16T05:37:43.320Z,30.9
2018-03-16T05:38:32.803Z,30.8
2018-03-16T05:39:23.263Z,30.6
2018-03-16T05:40:14.145Z,30.4
2018-03-16T05:41:03.689Z,30.3
2018-03-16T05:41:53.765Z,30.1
2018-03-16T05:42:44.637Z,29.7
2018-03-16T05:43:35.133Z,30.4
2018-03-16T05:44:25.541Z,31
2018-03-16T05:45:15.023Z,31.6
2018-03-16T05:46:05.629Z,32.3
2018-03-16T05:46:54.825Z,32.9
2018-03-16T05:47:45.715Z,33.7
2018-03-16T05:48:35.285Z,34.2
2018-03-16T05:49:25.582Z,33.8
2018-03-16T05:50:15.361Z,33.5
2018-03-16T05:51:05.690Z,33.3
2018-03-16T05:51:55.465Z,33.1
2018-03-16T05:52:45.547Z,33
2018-03-16T05:53:35.345Z,32.9
2018-03-16T05:54:25.656Z,32.8
2018-03-16T05:55:15.760Z,32.7
2018-03-16T05:56:06.324Z,32.5
2018-03-16T05:56:54.987Z,32.4
2018-03-16T05:57:45.315Z,32.3
2018-03-16T05:58:35.116Z,32.2
2018-03-16T05:59:25.327Z,32
2018-03-16T06:00:14.283Z,31.9
2018-03-16T06:01:04.999Z,31.8
2018-03-16T06:01:54.931Z,31.6
2018-03-16T06:02:45.182Z,31.4
2018-03-16T06:03:35.266Z,31.3
2018-03-16T06:04:24.606Z,31.2
2018-03-16T06:05:15.781Z,31.1
2018-03-16T06:06:05.247Z,30.9
2018-03-16T06:06:55.476Z,30.8
2018-03-16T06:07:45.761Z,30.7
2018-03-16T06:08:36.121Z,30.6
2018-03-16T06:09:26.531Z,30.4
2018-03-16T06:10:15.739Z,30.3
2018-03-16T06:11:06.201Z,30.1
2018-03-16T06:11:56.140Z,29.9
2018-03-16T06:12:45.863Z,30.5
2018-03-16T06:13:37.126Z,31.1
2018-03-16T06:14:26.460Z,31.7
2018-03-16T06:15:16.202Z,32.4
2018-03-16T06:16:05.671Z,33
2018-03-16T06:16:56.763Z,33.7
2018-03-16T06:17:46.443Z,34.2
2018-03-16T06:18:36.143Z,33.8
2018-03-16T06:19:26.011Z,33.5
2018-03-16T06:20:16.856Z,33.4
2018-03-16T06:21:05.963Z,33.2
2018-03-16T06:21:55.577Z,33.1
2018-03-16T06:22:46.318Z,33
2018-03-16T06:23:36.892Z,32.8
2018-03-16T06:24:27.253Z,32.7
2018-03-16T06:25:16.816Z,32.6
2018-03-16T06:26:07.557Z,32.4
2018-03-16T06:26:57.888Z,32.3
2018-03-16T06:27:47.547Z,32.1
2018-03-16T06:28:37.811Z,31.9
2018-03-16T06:29:27.572Z,31.8
2018-03-16T06:30:17.658Z,31.7
2018-03-16T06:31:06.933Z,31.6
2018-03-16T06:31:56.817Z,31.4
2018-03-16T06:32:47.443Z,31.3
2018-03-16T06:33:38.005Z,31.2
2018-03-16T06:34:28.352Z,31
2018-03-16T06:35:17.039Z,30.9
2018-03-16T06:36:08.331Z,30.8
2018-03-16T06:36:57.836Z,30.7
2018-03-16T06:37:47.926Z,30.6
2018-03-16T06:38:38.041Z,30.4
2018-03-16T06:39:27.703Z,30.3
2018-03-16T06:40:17.409Z,29.9
2018-03-16T06:41:08.562Z,30.3
2018-03-16T06:41:58.087Z,30.9
2018-03-16T06:42:47.927Z,31.4
2018-03-16T06:43:38.696Z,32
2018-03-16T06:44:28.314Z,32.6
2018-03-16T06:45:18.046Z,33.3
2018-03-16T06:46:09.050Z,34.1
2018-03-16T06:46:58.567Z,34.3
2018-03-16T06:47:49.762Z,33.9
2018-03-16T06:48:38.656Z,33.7
2018-03-16T06:49:29.846Z,33.6
2018-03-16T06:50:19.883Z,33.4
2018-03-16T06:51:09.931Z,33.3
2018-03-16T06:51:58.639Z,33.2
2018-03-16T06:52:49.113Z,33.1
2018-03-16T06:53:38.829Z,32.9
2018-03-16T06:54:29.381Z,32.8
2018-03-16T06:55:18.852Z,32.7
2018-03-16T06:56:09.536Z,32.6
2018-03-16T06:56:58.939Z,32.4
2018-03-16T06:57:48.927Z,32.2
2018-03-16T06:58:38.954Z,32.1
2018-03-16T06:59:29.170Z,31.9
2018-03-16T07:00:18.323Z,31.8
2018-03-16T07:01:09.707Z,31.7
2018-03-16T07:01:59.113Z,31.5
2018-03-16T07:02:49.131Z,31.4
2018-03-16T07:03:39.615Z,31.3
2018-03-16T07:04:30.061Z,31.1
2018-03-16T07:05:19.416Z,31
2018-03-16T07:06:10.760Z,30.9
2018-03-16T07:07:01.101Z,30.8
2018-03-16T07:07:49.529Z,30.6
2018-03-16T07:08:40.100Z,30.3
2018-03-16T07:09:30.325Z,30.3
2018-03-16T07:10:19.942Z,30.8
2018-03-16T07:11:10.224Z,31.4
2018-03-16T07:12:00.074Z,32
2018-03-16T07:12:50.050Z,32.6
2018-03-16T07:13:40.297Z,33.3
2018-03-16T07:14:27.863Z,34.1
2018-03-16T07:15:19.177Z,34.1
2018-03-16T07:16:09.612Z,33.8
2018-03-16T07:17:00.369Z,33.6
2018-03-16T07:17:50.323Z,33.4
2018-03-16T07:18:40.754Z,33.3
2018-03-16T07:19:31.724Z,33.2
2018-03-16T07:20:20.140Z,33.1
2018-03-16T07:21:11.269Z,33
2018-03-16T07:22:00.821Z,32.9
2018-03-16T07:22:50.917Z,32.7
2018-03-16T07:23:40.657Z,32.6
2018-03-16T07:24:31.192Z,32.4
2018-03-16T07:25:21.365Z,32.3
2018-03-16T07:26:11.499Z,32.1
2018-03-16T07:27:01.105Z,31.9
2018-03-16T07:27:50.887Z,31.8
2018-03-16T07:28:41.758Z,31.7
2018-03-16T07:29:31.334Z,31.5
2018-03-16T07:30:21.986Z,31.3
2018-03-16T07:31:11.556Z,31.2
2018-03-16T07:32:01.513Z,31.1
2018-03-16T07:32:52.763Z,30.9
2018-03-16T07:33:41.169Z,30.8
2018-03-16T07:34:31.900Z,30.6
2018-03-16T07:35:21.373Z,30.5
2018-03-16T07:36:12.024Z,30.4
2018-03-16T07:37:01.574Z,30
2018-03-16T07:37:51.926Z,30.4
2018-03-16T07:38:41.745Z,31.1
2018-03-16T07:39:33.364Z,31.8
2018-03-16T07:40:23.138Z,32.4
2018-03-16T07:41:14.124Z,33.2
2018-03-16T07:42:02.833Z,34
2018-03-16T07:42:54.318Z,34.1
2018-03-16T07:43:43.103Z,33.8
2018-03-16T07:44:32.862Z,33.6
2018-03-16T07:45:23.215Z,33.4
2018-03-16T07:46:13.820Z,33.3
2018-03-16T07:47:04.241Z,33.2
2018-03-16T07:47:52.628Z,33.1
2018-03-16T07:48:43.063Z,32.9
2018-03-16T07:49:32.603Z,32.8
2018-03-16T07:50:22.735Z,32.7
2018-03-16T07:51:12.308Z,32.6
2018-03-16T07:52:02.693Z,32.4
2018-03-16T07:52:51.860Z,32.3
2018-03-16T07:53:42.393Z,32.1
2018-03-16T07:54:33.073Z,31.9
2018-03-16T07:55:23.723Z,31.8
2018-03-16T07:56:14.325Z,31.7
2018-03-16T07:57:04.384Z,31.5
2018-03-16T07:57:53.951Z,31.4
2018-03-16T07:58:45.022Z,31.3
2018-03-16T07:59:34.537Z,31.1
2018-03-16T08:00:24.294Z,30.9
2018-03-16T08:01:15.027Z,30.9
2018-03-16T08:02:05.033Z,30.7
2018-03-16T08:02:54.162Z,30.6
2018-03-16T08:03:45.151Z,30.4
2018-03-16T08:04:35.147Z,30
2018-03-16T08:05:24.682Z,30.3
2018-03-16T08:06:14.697Z,30.9
2018-03-16T08:07:05.654Z,31.5
2018-03-16T08:07:55.703Z,32.2
2018-03-16T08:08:44.821Z,32.9
2018-03-16T08:09:35.560Z,33.6
2018-03-16T08:10:25.267Z,34.3
2018-03-16T08:11:15.624Z,33.9
2018-03-16T08:12:04.874Z,33.6
2018-03-16T08:12:55.213Z,33.4
2018-03-16T08:13:46.100Z,33.3
2018-03-16T08:14:35.577Z,33.2
2018-03-16T08:15:26.806Z,33.1
2018-03-16T08:16:16.012Z,32.9
2018-03-16T08:17:05.756Z,32.8
2018-03-16T08:17:56.387Z,32.7
2018-03-16T08:18:45.966Z,32.6
2018-03-16T08:19:36.248Z,32.4
2018-03-16T08:20:26.006Z,32.3
2018-03-16T08:21:16.359Z,32.1
2018-03-16T08:22:05.818Z,31.9
2018-03-16T08:22:56.709Z,31.8
2018-03-16T08:23:46.564Z,31.7
2018-03-16T08:24:36.597Z,31.5
2018-03-16T08:25:26.936Z,31.3
2018-03-16T08:26:16.686Z,31.3
2018-03-16T08:27:06.491Z,31.1
2018-03-16T08:27:56.522Z,31
2018-03-16T08:28:46.880Z,30.9
2018-03-16T08:29:36.693Z,30.8
2018-03-16T08:30:26.761Z,30.6
2018-03-16T08:31:17.453Z,30.5
2018-03-16T08:32:06.541Z,30.3
2018-03-16T08:32:56.898Z,29.9
2018-03-16T08:33:46.981Z,30.4
2018-03-16T08:34:37.595Z,31
2018-03-16T08:35:25.938Z,31.7
2018-03-16T08:36:17.223Z,32.3
2018-03-16T08:37:07.475Z,33.1
2018-03-16T08:37:57.041Z,33.8
2018-03-16T08:38:47.609Z,34.3
2018-03-16T08:39:37.163Z,33.9
2018-03-16T08:40:26.363Z,33.6
2018-03-16T08:41:17.023Z,33.4
2018-03-16T08:42:07.633Z,33.3
2018-03-16T08:42:57.081Z,33.2
2018-03-16T08:43:45.968Z,33.1
2018-03-16T08:44:36.480Z,32.9
2018-03-16T08:45:27.135Z,32.8
2018-03-16T08:46:17.437Z,32.7
2018-03-16T08:47:06.495Z,32.6
2018-03-16T08:47:56.255Z,32.4
2018-03-16T08:48:47.070Z,32.3
2018-03-16T08:49:38.112Z,32.1
2018-03-16T08:50:26.819Z,31.9
2018-03-16T08:51:16.628Z,31.9
2018-03-16T08:52:06.131Z,31.7
2018-03-16T08:52:57.893Z,31.6
2018-03-16T08:53:46.871Z,31.4
2018-03-16T08:54:37.505Z,31.3
2018-03-16T08:55:27.958Z,31.1
2018-03-16T08:56:18.292Z,31
2018-03-16T08:57:08.377Z,30.9
2018-03-16T08:57:56.273Z,30.7
2018-03-16T08:58:46.857Z,30.6
2018-03-16T08:59:37.747Z,30.4
2018-03-16T09:00:28.222Z,30.3
2018-03-16T09:01:18.116Z,29.9
2018-03-16T09:02:07.447Z,30.5
2018-03-16T09:02:57.448Z,31.1
2018-03-16T09:03:48.745Z,31.8
2018-03-16T09:04:37.829Z,32.5
2018-03-16T09:05:27.576Z,33.3
2018-03-16T09:06:17.796Z,34.1
2018-03-16T09:07:07.786Z,34.1
2018-03-16T09:07:57.577Z,33.7
2018-03-16T09:08:49.243Z,33.5
2018-03-16T09:09:39.293Z,33.4
2018-03-16T09:10:28.423Z,33.3
2018-03-16T09:11:18.829Z,33.1
2018-03-16T09:12:08.511Z,33
2018-03-16T09:12:59.515Z,32.9
2018-03-16T09:13:49.176Z,32.7
2018-03-16T09:14:39.528Z,32.6
2018-03-16T09:15:28.268Z,32.4
2018-03-16T09:16:18.487Z,32.3
2018-03-16T09:17:09.525Z,32.2
2018-03-16T09:17:59.243Z,32.1
2018-03-16T09:18:48.916Z,31.9
2018-03-16T09:19:39.222Z,31.8
2018-03-16T09:20:28.762Z,31.6
2018-03-16T09:21:19.331Z,31.5
2018-03-16T09:22:09.879Z,31.3
2018-03-16T09:22:59.426Z,31.2
2018-03-16T09:23:49.064Z,31.1
2018-03-16T09:24:39.707Z,30.9
2018-03-16T09:25:29.470Z,30.8
2018-03-16T09:26:19.492Z,30.7
2018-03-16T09:27:09.525Z,30.6
2018-03-16T09:27:59.384Z,30.4
2018-03-16T09:28:50.191Z,30.1
2018-03-16T09:29:40.598Z,30.3
2018-03-16T09:30:29.924Z,30.9
2018-03-16T09:31:20.250Z,31.6
2018-03-16T09:32:10.968Z,32.4
2018-03-16T09:33:00.128Z,33.2
2018-03-16T09:33:50.605Z,34
2018-03-16T09:34:40.648Z,34.3
2018-03-16T09:35:31.140Z,33.9
2018-03-16T09:36:20.461Z,33.6
2018-03-16T09:37:10.854Z,33.4
2018-03-16T09:37:59.227Z,33.4
2018-03-16T09:38:50.832Z,33.3
2018-03-16T09:39:41.282Z,33.1
2018-03-16T09:40:30.869Z,32.9
2018-03-16T09:41:20.742Z,32.9
2018-03-16T09:42:09.906Z,32.7
2018-03-16T09:43:00.810Z,32.6
2018-03-16T09:43:49.791Z,32.4
2018-03-16T09:44:40.953Z,32.3
2018-03-16T09:45:30.544Z,32.1
2018-03-16T09:46:20.704Z,32
2018-03-16T09:47:10.452Z,31.9
2018-03-16T09:48:01.169Z,31.8
2018-03-16T09:48:51.274Z,31.6
2018-03-16T09:49:41.663Z,31.4
2018-03-16T09:50:31.642Z,31.3
2018-03-16T09:51:21.588Z,31.2
2018-03-16T09:52:10.503Z,31.1
2018-03-16T09:53:02.436Z,30.9
2018-03-16T09:53:51.434Z,30.8
2018-03-16T09:54:41.365Z,30.7
2018-03-16T09:55:31.549Z,30.6
2018-03-16T09:56:21.831Z,30.4
2018-03-16T09:57:12.060Z,30
2018-03-16T09:58:01.617Z,30.6
2018-03-16T09:58:51.285Z,31.3
2018-03-16T09:59:41.038Z,32
2018-03-16T10:00:30.904Z,32.8
2018-03-16T10:01:20.972Z,33.6
2018-03-16T10:02:12.205Z,34.4
2018-03-16T10:03:01.088Z,34
2018-03-16T10:03:51.708Z,33.8
2018-03-16T10:04:41.729Z,33.5
2018-03-16T10:05:32.416Z,33.4
2018-03-16T10:06:21.930Z,33.3
2018-03-16T10:07:11.353Z,33.2
2018-03-16T10:08:02.138Z,33.1
2018-03-16T10:08:51.092Z,32.9
2018-03-16T10:09:42.346Z,32.8
2018-03-16T10:10:32.125Z,32.7
2018-03-16T10:11:23.467Z,32.6
2018-03-16T10:12:14.228Z,32.4
2018-03-16T10:13:04.349Z,32.3
2018-03-16T10:13:53.822Z,32.1
2018-03-16T10:14:43.354Z,32
2018-03-16T10:15:34.456Z,31.8
2018-03-16T10:16:24.783Z,31.7
2018-03-16T10:17:14.377Z,31.6
2018-03-16T10:18:03.329Z,31.4
2018-03-16T10:18:52.583Z,31.3
2018-03-16T10:19:43.045Z,31.2
2018-03-16T10:20:33.554Z,31.1
2018-03-16T10:21:22.674Z,30.9
2018-03-16T10:22:13.284Z,30.8
2018-03-16T10:23:04.356Z,30.6
2018-03-16T10:23:53.221Z,30.5
2018-03-16T10:24:44.712Z,30.2
2018-03-16T10:25:33.792Z,30.3
2018-03-16T10:26:22.918Z,30.9
2018-03-16T10:27:13.082Z,31.6
2018-03-16T10:28:04.060Z,32.4
2018-03-16T10:28:54.180Z,33.2
2018-03-16T10:29:44.356Z,34
2018-03-16T10:30:33.697Z,34.1
2018-03-16T10:31:24.073Z,33.8
2018-03-16T10:32:14.238Z,33.6
2018-03-16T10:33:04.033Z,33.4
2018-03-16T10:33:54.188Z,33.3
2018-03-16T10:34:45.078Z,33.3
2018-03-16T10:35:34.085Z,33.1
2018-03-16T10:36:24.816Z,33
2018-03-16T10:37:14.518Z,32.9
2018-03-16T10:38:04.663Z,32.8
2018-03-16T10:38:53.658Z,32.6
2018-03-16T10:39:44.877Z,32.4
2018-03-16T10:40:35.225Z,32.3
2018-03-16T10:41:24.492Z,32.2
2018-03-16T10:42:14.548Z,32.1
2018-03-16T10:43:05.215Z,31.9
2018-03-16T10:43:56.264Z,31.8
2018-03-16T10:44:45.571Z,31.6
2018-03-16T10:45:34.973Z,31.4
2018-03-16T10:46:25.046Z,31.3
2018-03-16T10:47:16.213Z,31.1
2018-03-16T10:48:05.855Z,31
2018-03-16T10:48:54.578Z,30.9
2018-03-16T10:49:44.798Z,30.7
2018-03-16T10:50:35.113Z,30.6
2018-03-16T10:51:25.150Z,30.5
2018-03-16T10:52:15.673Z,30.3
2018-03-16T10:53:04.942Z,30.2
2018-03-16T10:53:56.165Z,30.8
2018-03-16T10:54:45.645Z,31.6
2018-03-16T10:55:36.472Z,32.3
2018-03-16T10:56:26.643Z,33.1
2018-03-16T10:57:16.384Z,34
2018-03-16T10:58:06.067Z,34.1
2018-03-16T10:58:56.622Z,33.8
2018-03-16T10:59:45.417Z,33.6
2018-03-16T11:00:36.787Z,33.4
2018-03-16T11:01:27.057Z,33.3
2018-03-16T11:02:16.645Z,33.3
2018-03-16T11:03:06.370Z,33.1
2018-03-16T11:03:55.727Z,32.9
2018-03-16T11:04:46.094Z,32.8
2018-03-16T11:05:37.024Z,32.7
2018-03-16T11:06:27.442Z,32.6
2018-03-16T11:07:16.542Z,32.4
2018-03-16T11:08:06.714Z,32.3
2018-03-16T11:08:57.254Z,32.1
2018-03-16T11:09:46.759Z,31.9